sensor_id;sensor_type;location;lat;lon;timestamp;pressure;altitude;pressure_sealevel;temperature;humidity
29825;BME280;16713;52.916;12.834;2023-02-12T00:02:19;102721.16;;;6.29;83.34
29825;BME280;16713;52.916;12.834;2023-02-12T00:04:46;102726.31;;;6.36;83.36
29825;BME280;16713;52.916;12.834;2023-02-12T00:07:12;102725.25;;;6.32;83.12
29825;BME280;16713;52.916;12.834;2023-02-12T00:09:39;102728.78;;;6.32;83.18
29825;BME280;16713;52.916;12.834;2023-02-12T00:12:05;102731.22;;;6.28;82.92
29825;BME280;16713;52.916;12.834;2023-02-12T00:14:32;102733.69;;;6.25;83.67
29825;BME280;16713;52.916;12.834;2023-02-12T00:16:59;102733.69;;;6.25;83.33
29825;BME280;16713;52.916;12.834;2023-02-12T00:19:25;102740.50;;;6.27;84.04
29825;BME280;16713;52.916;12.834;2023-02-12T00:21:52;102736.94;;;6.27;83.77
29825;BME280;16713;52.916;12.834;2023-02-12T00:24:18;102744.28;;;6.37;83.41
29825;BME280;16713;52.916;12.834;2023-02-12T00:26:44;102733.13;;;6.38;83.94
29825;BME280;16713;52.916;12.834;2023-02-12T00:29:13;102744.28;;;6.42;84.02
29825;BME280;16713;52.916;12.834;2023-02-12T00:31:39;102747.00;;;6.47;83.02
29825;BME280;16713;52.916;12.834;2023-02-12T00:34:06;102747.28;;;6.45;83.69
29825;BME280;16713;52.916;12.834;2023-02-12T00:36:32;102745.09;;;6.52;83.68
29825;BME280;16713;52.916;12.834;2023-02-12T00:38:58;102742.88;;;6.54;83.64
29825;BME280;16713;52.916;12.834;2023-02-12T00:41:25;102740.16;;;6.54;82.59
29825;BME280;16713;52.916;12.834;2023-02-12T00:43:51;102745.38;;;6.51;82.74
29825;BME280;16713;52.916;12.834;2023-02-12T00:46:18;102749.16;;;6.50;83.50
29825;BME280;16713;52.916;12.834;2023-02-12T00:48:44;102745.09;;;6.47;83.01
29825;BME280;16713;52.916;12.834;2023-02-12T00:51:11;102748.88;;;6.51;82.58
29825;BME280;16713;52.916;12.834;2023-02-12T00:53:37;102747.25;;;6.55;82.53
29825;BME280;16713;52.916;12.834;2023-02-12T00:56:04;102739.91;;;6.56;82.94
29825;BME280;16713;52.916;12.834;2023-02-12T00:58:30;102753.22;;;6.62;82.11
29825;BME280;16713;52.916;12.834;2023-02-12T01:00:56;102753.22;;;6.62;81.97
29825;BME280;16713;52.916;12.834;2023-02-12T01:03:23;102764.66;;;6.69;81.84
29825;BME280;16713;52.916;12.834;2023-02-12T01:05:49;102760.31;;;6.58;82.09
29825;BME280;16713;52.916;12.834;2023-02-12T01:08:16;102756.50;;;6.54;82.04
29825;BME280;16713;52.916;12.834;2023-02-12T01:10:42;102766.34;;;6.55;82.42
29825;BME280;16713;52.916;12.834;2023-02-12T01:13:11;102767.97;;;6.56;83.01
29825;BME280;16713;52.916;12.834;2023-02-12T01:15:37;102768.22;;;6.55;82.24
29825;BME280;16713;52.916;12.834;2023-02-12T01:18:04;102776.69;;;6.58;82.22
29825;BME280;16713;52.916;12.834;2023-02-12T01:20:30;102781.03;;;6.54;82.08
29825;BME280;16713;52.916;12.834;2023-02-12T01:22:56;102773.97;;;6.53;82.02
29825;BME280;16713;52.916;12.834;2023-02-12T01:25:23;102776.41;;;6.50;82.36
29825;BME280;16713;52.916;12.834;2023-02-12T01:27:52;102783.25;;;6.52;82.35
29825;BME280;16713;52.916;12.834;2023-02-12T01:30:18;102792.22;;;6.53;82.24
29825;BME280;16713;52.916;12.834;2023-02-12T01:32:47;102783.75;;;6.54;82.66
29825;BME280;16713;52.916;12.834;2023-02-12T01:35:13;102788.69;;;6.52;82.42
29825;BME280;16713;52.916;12.834;2023-02-12T01:37:39;102787.06;;;6.46;82.66
29825;BME280;16713;52.916;12.834;2023-02-12T01:40:06;102791.97;;;6.49;82.21
29825;BME280;16713;52.916;12.834;2023-02-12T01:42:33;102793.59;;;6.50;81.98
29825;BME280;16713;52.916;12.834;2023-02-12T01:46:00;102798.25;;;6.45;82.11
29825;BME280;16713;52.916;12.834;2023-02-12T01:47:55;102805.59;;;6.49;81.89
29825;BME280;16713;52.916;12.834;2023-02-12T01:50:24;102802.34;;;6.47;81.92
29825;BME280;16713;52.916;12.834;2023-02-12T01:52:52;102799.88;;;6.46;82.38
29825;BME280;16713;52.916;12.834;2023-02-12T01:55:19;102802.31;;;6.52;81.65
29825;BME280;16713;52.916;12.834;2023-02-12T01:57:46;102806.69;;;6.43;82.34
29825;BME280;16713;52.916;12.834;2023-02-12T02:00:15;102817.28;;;6.60;82.39
29825;BME280;16713;52.916;12.834;2023-02-12T02:02:42;102809.69;;;6.47;82.09
29825;BME280;16713;52.916;12.834;2023-02-12T02:05:10;102808.63;;;6.48;81.70
29825;BME280;16713;52.916;12.834;2023-02-12T02:07:38;102815.97;;;6.42;82.09
29825;BME280;16713;52.916;12.834;2023-02-12T02:10:05;102814.88;;;6.48;81.58
29825;BME280;16713;52.916;12.834;2023-02-12T02:12:32;102816.25;;;6.51;82.79
29825;BME280;16713;52.916;12.834;2023-02-12T02:15:17;102815.69;;;6.44;82.27
29825;BME280;16713;52.916;12.834;2023-02-12T02:20:20;102814.31;;;6.51;81.75
29825;BME280;16713;52.916;12.834;2023-02-12T02:25:33;102820.59;;;6.52;81.14
29825;BME280;16713;52.916;12.834;2023-02-12T02:28:20;102822.22;;;6.53;81.35
29825;BME280;16713;52.916;12.834;2023-02-12T02:33:38;102827.13;;;6.56;81.29
29825;BME280;16713;52.916;12.834;2023-02-12T02:36:42;102829.03;;;6.65;81.75
29825;BME280;16713;52.916;12.834;2023-02-12T02:39:02;102825.47;;;6.65;81.70
29825;BME280;16713;52.916;12.834;2023-02-12T02:41:34;102820.00;;;6.65;81.76
29825;BME280;16713;52.916;12.834;2023-02-12T02:44:05;102825.19;;;6.61;80.91
29825;BME280;16713;52.916;12.834;2023-02-12T02:46:38;102826.56;;;6.64;81.09
29825;BME280;16713;52.916;12.834;2023-02-12T02:49:06;102830.09;;;6.64;81.08
29825;BME280;16713;52.916;12.834;2023-02-12T02:51:36;102827.38;;;6.59;81.61
29825;BME280;16713;52.916;12.834;2023-02-12T02:54:15;102827.09;;;6.61;80.80
29825;BME280;16713;52.916;12.834;2023-02-12T02:56:45;102829.53;;;6.62;80.99
29825;BME280;16713;52.916;12.834;2023-02-12T02:59:27;102834.44;;;6.70;80.73
29825;BME280;16713;52.916;12.834;2023-02-12T03:01:58;102833.66;;;6.60;80.65
29825;BME280;16713;52.916;12.834;2023-02-12T03:04:29;102838.28;;;6.54;80.96
29825;BME280;16713;52.916;12.834;2023-02-12T03:06:59;102838.56;;;6.58;80.78
29825;BME280;16713;52.916;12.834;2023-02-12T03:09:30;102839.38;;;6.58;81.57
29825;BME280;16713;52.916;12.834;2023-02-12T03:12:01;102840.44;;;6.77;81.46
29825;BME280;16713;52.916;12.834;2023-02-12T03:14:30;102838.53;;;6.73;81.13
29825;BME280;16713;52.916;12.834;2023-02-12T03:17:20;102835.81;;;6.73;80.76
29825;BME280;16713;52.916;12.834;2023-02-12T03:19:46;102835.00;;;6.62;80.23
29825;BME280;16713;52.916;12.834;2023-02-12T03:22:24;102831.22;;;6.58;80.99
29825;BME280;16713;52.916;12.834;2023-02-12T03:24:55;102839.38;;;6.58;80.96
29825;BME280;16713;52.916;12.834;2023-02-12T03:27:26;102842.94;;;6.59;80.68
29825;BME280;16713;52.916;12.834;2023-02-12T03:29:54;102830.66;;;6.46;81.66
29825;BME280;16713;52.916;12.834;2023-02-12T03:32:23;102835.56;;;6.54;81.35
29825;BME280;16713;52.916;12.834;2023-02-12T03:34:54;102844.28;;;6.51;80.76
29825;BME280;16713;52.916;12.834;2023-02-12T03:37:30;102852.75;;;6.50;81.33
29825;BME280;16713;52.916;12.834;2023-02-12T03:45:05;102850.03;;;6.50;81.03
29825;BME280;16713;52.916;12.834;2023-02-12T03:52:27;102852.22;;;6.43;81.39
29825;BME280;16713;52.916;12.834;2023-02-12T03:54:54;102850.31;;;6.38;81.29
29825;BME280;16713;52.916;12.834;2023-02-12T03:57:21;102851.69;;;6.36;81.96
29825;BME280;16713;52.916;12.834;2023-02-12T03:59:49;102854.13;;;6.37;81.35
29825;BME280;16713;52.916;12.834;2023-02-12T04:02:17;102849.78;;;6.41;81.80
29825;BME280;16713;52.916;12.834;2023-02-12T04:04:44;102852.78;;;6.35;81.96
29825;BME280;16713;52.916;12.834;2023-02-12T04:07:11;102856.84;;;6.37;81.40
29825;BME280;16713;52.916;12.834;2023-02-12T04:09:38;102862.31;;;6.37;81.58
29825;BME280;16713;52.916;12.834;2023-02-12T04:14:41;102856.84;;;6.32;81.71
29825;BME280;16713;52.916;12.834;2023-02-12T04:19:49;102863.41;;;6.31;81.79
29825;BME280;16713;52.916;12.834;2023-02-12T04:27:36;102880.31;;;6.33;81.51
29825;BME280;16713;52.916;12.834;2023-02-12T04:30:06;102877.59;;;6.33;81.46
29825;BME280;16713;52.916;12.834;2023-02-12T04:35:14;102878.38;;;6.33;82.07
29825;BME280;16713;52.916;12.834;2023-02-12T04:37:45;102890.38;;;6.32;81.72
29825;BME280;16713;52.916;12.834;2023-02-12T04:40:15;102892.56;;;6.30;81.78
29825;BME280;16713;52.916;12.834;2023-02-12T04:42:43;102898.28;;;6.29;81.75
29825;BME280;16713;52.916;12.834;2023-02-12T04:45:11;102893.66;;;6.35;82.09
29825;BME280;16713;52.916;12.834;2023-02-12T04:47:37;102889.28;;;6.33;82.87
29825;BME280;16713;52.916;12.834;2023-02-12T04:50:04;102892.84;;;6.39;81.66
29825;BME280;16713;52.916;12.834;2023-02-12T04:52:30;102890.09;;;6.34;82.60
29825;BME280;16713;52.916;12.834;2023-02-12T04:54:57;102891.47;;;6.32;82.34
29825;BME280;16713;52.916;12.834;2023-02-12T04:57:23;102893.94;;;6.33;81.42
29825;BME280;16713;52.916;12.834;2023-02-12T04:59:49;102889.56;;;6.32;81.86
29825;BME280;16713;52.916;12.834;2023-02-12T05:02:16;102895.56;;;6.29;81.91
29825;BME280;16713;52.916;12.834;2023-02-12T05:04:42;102893.94;;;6.33;81.58
29825;BME280;16713;52.916;12.834;2023-02-12T05:07:09;102899.09;;;6.35;81.89
29825;BME280;16713;52.916;12.834;2023-02-12T05:09:36;102895.84;;;6.32;82.18
29825;BME280;16713;52.916;12.834;2023-02-12T05:12:02;102894.47;;;6.35;81.43
29825;BME280;16713;52.916;12.834;2023-02-12T05:14:28;102893.94;;;6.33;81.62
29825;BME280;16713;52.916;12.834;2023-02-12T05:16:55;102890.94;;;6.29;82.24
29825;BME280;16713;52.916;12.834;2023-02-12T05:19:21;102892.22;;;6.22;82.13
29825;BME280;16713;52.916;12.834;2023-02-12T05:21:48;102892.56;;;6.30;81.68
29825;BME280;16713;52.916;12.834;2023-02-12T05:24:15;102896.09;;;6.36;82.05
29825;BME280;16713;52.916;12.834;2023-02-12T05:26:41;102891.47;;;6.32;82.07
29825;BME280;16713;52.916;12.834;2023-02-12T05:29:08;102889.28;;;6.33;82.10
29825;BME280;16713;52.916;12.834;2023-02-12T05:31:34;102890.09;;;6.29;81.62
29825;BME280;16713;52.916;12.834;2023-02-12T05:34:01;102886.81;;;6.17;82.26
29825;BME280;16713;52.916;12.834;2023-02-12T05:36:27;102898.28;;;6.34;82.27
29825;BME280;16713;52.916;12.834;2023-02-12T05:38:56;102892.28;;;6.32;81.82
29825;BME280;16713;52.916;12.834;2023-02-12T05:41:22;102902.91;;;6.33;82.21
29825;BME280;16713;52.916;12.834;2023-02-12T05:43:49;102908.06;;;6.30;81.93
29825;BME280;16713;52.916;12.834;2023-02-12T05:46:19;102913.81;;;6.28;82.05
29825;BME280;16713;52.916;12.834;2023-02-12T05:48:46;102920.59;;;6.26;81.55
29825;BME280;16713;52.916;12.834;2023-02-12T05:51:14;102918.69;;;6.26;82.27
29825;BME280;16713;52.916;12.834;2023-02-12T05:53:41;102931.81;;;6.35;81.75
29825;BME280;16713;52.916;12.834;2023-02-12T05:58:37;102920.34;;;6.32;81.43
29825;BME280;16713;52.916;12.834;2023-02-12T06:01:07;102925.53;;;6.29;81.61
29825;BME280;16713;52.916;12.834;2023-02-12T06:03:34;102930.38;;;6.27;81.57
29825;BME280;16713;52.916;12.834;2023-02-12T06:06:00;102931.75;;;6.19;81.92
29825;BME280;16713;52.916;12.834;2023-02-12T06:08:27;102938.31;;;6.23;81.85
29825;BME280;16713;52.916;12.834;2023-02-12T06:10:53;102935.31;;;6.30;81.93
29825;BME280;16713;52.916;12.834;2023-02-12T06:13:19;102940.75;;;6.25;81.65
29825;BME280;16713;52.916;12.834;2023-02-12T06:15:46;102946.50;;;6.28;81.48
29825;BME280;16713;52.916;12.834;2023-02-12T06:18:12;102944.28;;;6.20;81.71
29825;BME280;16713;52.916;12.834;2023-02-12T06:20:38;102956.28;;;6.19;81.54
29825;BME280;16713;52.916;12.834;2023-02-12T06:23:05;102964.16;;;6.11;81.79
29825;BME280;16713;52.916;12.834;2023-02-12T06:25:31;102961.44;;;6.21;81.77
29825;BME280;16713;52.916;12.834;2023-02-12T06:27:58;102952.72;;;6.19;81.63
29825;BME280;16713;52.916;12.834;2023-02-12T06:30:24;102955.19;;;6.20;81.56
29825;BME280;16713;52.916;12.834;2023-02-12T06:32:50;102945.66;;;6.18;81.49
29825;BME280;16713;52.916;12.834;2023-02-12T06:35:17;102960.38;;;6.17;81.53
29825;BME280;16713;52.916;12.834;2023-02-12T06:37:43;102962.81;;;6.18;82.00
29825;BME280;16713;52.916;12.834;2023-02-12T06:40:09;102968.53;;;6.17;81.77
29825;BME280;16713;52.916;12.834;2023-02-12T06:42:36;102956.53;;;6.18;82.29
29825;BME280;16713;52.916;12.834;2023-02-12T06:45:02;102965.28;;;6.20;81.98
29825;BME280;16713;52.916;12.834;2023-02-12T06:47:29;102965.56;;;6.23;82.19
29825;BME280;16713;52.916;12.834;2023-02-12T06:49:55;102976.47;;;6.23;81.20
29825;BME280;16713;52.916;12.834;2023-02-12T06:52:21;102982.44;;;6.25;81.92
29825;BME280;16713;52.916;12.834;2023-02-12T06:54:48;102985.44;;;6.24;81.96
29825;BME280;16713;52.916;12.834;2023-02-12T06:57:14;102984.63;;;6.18;81.69
29825;BME280;16713;52.916;12.834;2023-02-12T06:59:41;102985.44;;;6.24;81.95
29825;BME280;16713;52.916;12.834;2023-02-12T07:02:08;102988.41;;;6.17;82.33
29825;BME280;16713;52.916;12.834;2023-02-12T07:04:36;102985.97;;;6.21;82.33
29825;BME280;16713;52.916;12.834;2023-02-12T07:07:03;102991.16;;;6.22;82.77
29825;BME280;16713;52.916;12.834;2023-02-12T07:09:29;102987.09;;;6.30;81.83
29825;BME280;16713;52.916;12.834;2023-02-12T07:11:59;102985.47;;;6.29;81.49
29825;BME280;16713;52.916;12.834;2023-02-12T07:14:25;102990.66;;;6.30;82.08
29825;BME280;16713;52.916;12.834;2023-02-12T07:16:53;102988.19;;;6.29;81.91
29825;BME280;16713;52.916;12.834;2023-02-12T07:19:22;102990.66;;;6.36;82.11
29825;BME280;16713;52.916;12.834;2023-02-12T07:21:48;102994.22;;;6.31;82.03
29825;BME280;16713;52.916;12.834;2023-02-12T07:24:15;102994.97;;;6.16;82.35
29825;BME280;16713;52.916;12.834;2023-02-12T07:26:43;103000.72;;;6.25;82.88
29825;BME280;16713;52.916;12.834;2023-02-12T07:29:09;103003.22;;;6.32;82.47
29825;BME280;16713;52.916;12.834;2023-02-12T07:31:36;103004.00;;;6.32;82.52
29825;BME280;16713;52.916;12.834;2023-02-12T07:34:02;103008.38;;;6.33;82.11
29825;BME280;16713;52.916;12.834;2023-02-12T07:36:29;103011.13;;;6.33;82.62
29825;BME280;16713;52.916;12.834;2023-02-12T07:38:56;103011.63;;;6.35;82.21
29825;BME280;16713;52.916;12.834;2023-02-12T07:41:27;103013.81;;;6.28;82.72
29825;BME280;16713;52.916;12.834;2023-02-12T07:44:04;103011.09;;;6.38;82.38
29825;BME280;16713;52.916;12.834;2023-02-12T07:46:33;103018.75;;;6.36;83.09
29825;BME280;16713;52.916;12.834;2023-02-12T07:49:01;103009.50;;;6.47;82.83
29825;BME280;16713;52.916;12.834;2023-02-12T07:51:29;103016.84;;;6.47;82.48
29825;BME280;16713;52.916;12.834;2023-02-12T07:53:57;103023.13;;;6.47;82.62
29825;BME280;16713;52.916;12.834;2023-02-12T07:56:26;103020.69;;;6.51;82.77
29825;BME280;16713;52.916;12.834;2023-02-12T07:58:56;103022.56;;;6.45;82.85
29825;BME280;16713;52.916;12.834;2023-02-12T08:01:30;103027.19;;;6.50;83.06
29825;BME280;16713;52.916;12.834;2023-02-12T08:03:58;103026.41;;;6.64;82.15
29825;BME280;16713;52.916;12.834;2023-02-12T08:06:25;103021.75;;;6.55;82.28
29825;BME280;16713;52.916;12.834;2023-02-12T08:08:53;103020.94;;;6.54;83.29
29825;BME280;16713;52.916;12.834;2023-02-12T08:11:20;103012.22;;;6.42;82.47
29825;BME280;16713;52.916;12.834;2023-02-12T08:13:47;103028.56;;;6.42;82.81
29825;BME280;16713;52.916;12.834;2023-02-12T08:16:15;103024.47;;;6.50;82.66
29825;BME280;16713;52.916;12.834;2023-02-12T08:18:42;103017.69;;;6.52;83.01
29825;BME280;16713;52.916;12.834;2023-02-12T08:21:09;103022.56;;;6.50;83.72
29825;BME280;16713;52.916;12.834;2023-02-12T08:23:36;103020.13;;;6.54;83.74
29825;BME280;16713;52.916;12.834;2023-02-12T08:26:12;103021.75;;;6.45;83.37
29825;BME280;16713;52.916;12.834;2023-02-12T08:28:40;103026.13;;;6.51;83.93
29825;BME280;16713;52.916;12.834;2023-02-12T08:31:08;103033.50;;;6.55;83.52
29825;BME280;16713;52.916;12.834;2023-02-12T08:33:35;103033.50;;;6.55;83.59
29825;BME280;16713;52.916;12.834;2023-02-12T08:36:08;103031.06;;;6.64;83.36
29825;BME280;16713;52.916;12.834;2023-02-12T08:38:35;103027.78;;;6.67;83.61
29825;BME280;16713;52.916;12.834;2023-02-12T08:41:03;103027.50;;;6.63;83.79
29825;BME280;16713;52.916;12.834;2023-02-12T08:43:30;103031.59;;;6.56;83.94
29825;BME280;16713;52.916;12.834;2023-02-12T08:46:04;103032.66;;;6.55;84.58
29825;BME280;16713;52.916;12.834;2023-02-12T08:48:30;103043.31;;;6.61;84.20
29825;BME280;16713;52.916;12.834;2023-02-12T08:51:31;103042.78;;;6.69;83.76
29825;BME280;16713;52.916;12.834;2023-02-12T08:53:51;103050.41;;;6.67;84.45
29825;BME280;16713;52.916;12.834;2023-02-12T08:56:18;103042.22;;;6.72;83.97
29825;BME280;16713;52.916;12.834;2023-02-12T08:58:44;103055.59;;;6.89;83.55
29825;BME280;16713;52.916;12.834;2023-02-12T09:01:12;103049.31;;;6.78;84.32
29825;BME280;16713;52.916;12.834;2023-02-12T09:03:38;103059.69;;;6.71;84.40
29825;BME280;16713;52.916;12.834;2023-02-12T09:06:06;103064.31;;;6.76;84.94
29825;BME280;16713;52.916;12.834;2023-02-12T09:08:33;103068.97;;;6.85;84.70
29825;BME280;16713;52.916;12.834;2023-02-12T09:11:02;103070.88;;;6.80;84.08
29825;BME280;16713;52.916;12.834;2023-02-12T09:13:29;103063.53;;;6.90;83.61
29825;BME280;16713;52.916;12.834;2023-02-12T09:15:55;103068.16;;;6.95;83.40
29825;BME280;16713;52.916;12.834;2023-02-12T09:18:22;103075.25;;;7.01;84.23
29825;BME280;16713;52.916;12.834;2023-02-12T09:20:48;103073.88;;;6.93;83.35
29825;BME280;16713;52.916;12.834;2023-02-12T09:23:14;103073.06;;;6.93;83.12
29825;BME280;16713;52.916;12.834;2023-02-12T09:25:42;103080.44;;;6.97;82.76
29825;BME280;16713;52.916;12.834;2023-02-12T09:28:09;103089.69;;;6.96;82.68
29825;BME280;16713;52.916;12.834;2023-02-12T09:30:36;103092.44;;;7.01;83.62
29825;BME280;16713;52.916;12.834;2023-02-12T09:33:03;103091.34;;;6.97;83.37
29825;BME280;16713;52.916;12.834;2023-02-12T09:35:29;103096.25;;;6.95;83.23
29825;BME280;16713;52.916;12.834;2023-02-12T09:37:56;103100.59;;;6.91;82.67
29825;BME280;16713;52.916;12.834;2023-02-12T09:43:17;103111.25;;;7.03;83.28
29825;BME280;16713;52.916;12.834;2023-02-12T09:45:54;103115.91;;;7.17;83.02
29825;BME280;16713;52.916;12.834;2023-02-12T09:51:02;103129.00;;;7.15;82.79
29825;BME280;16713;52.916;12.834;2023-02-12T09:53:31;103124.63;;;7.09;82.32
29825;BME280;16713;52.916;12.834;2023-02-12T09:55:57;103118.91;;;7.21;81.59
29825;BME280;16713;52.916;12.834;2023-02-12T09:58:34;103135.00;;;7.17;81.20
29825;BME280;16713;52.916;12.834;2023-02-12T10:01:13;103118.91;;;7.21;81.77
29825;BME280;16713;52.916;12.834;2023-02-12T10:03:40;103120.00;;;7.25;80.75
29825;BME280;16713;52.916;12.834;2023-02-12T10:06:08;103132.84;;;7.24;80.93
29825;BME280;16713;52.916;12.834;2023-02-12T10:14:08;103142.66;;;7.20;81.01
29825;BME280;16713;52.916;12.834;2023-02-12T10:21:55;103139.09;;;7.35;80.82
29825;BME280;16713;52.916;12.834;2023-02-12T10:24:27;103135.53;;;7.34;81.23
29825;BME280;16713;52.916;12.834;2023-02-12T10:27:02;103135.81;;;7.38;79.77
29825;BME280;16713;52.916;12.834;2023-02-12T10:29:31;103136.66;;;7.28;81.06
29825;BME280;16713;52.916;12.834;2023-02-12T10:32:32;103130.41;;;7.28;80.63
29825;BME280;16713;52.916;12.834;2023-02-12T10:34:52;103126.84;;;7.32;81.59
29825;BME280;16713;52.916;12.834;2023-02-12T10:37:27;103138.81;;;7.31;81.06
29825;BME280;16713;52.916;12.834;2023-02-12T10:39:59;103140.75;;;7.31;81.07
29825;BME280;16713;52.916;12.834;2023-02-12T10:45:00;103139.91;;;7.20;82.06
29825;BME280;16713;52.916;12.834;2023-02-12T10:47:26;103138.81;;;7.26;81.02
29825;BME280;16713;52.916;12.834;2023-02-12T10:50:01;103133.91;;;7.23;81.46
29825;BME280;16713;52.916;12.834;2023-02-12T10:54:54;103135.81;;;7.43;81.61
29825;BME280;16713;52.916;12.834;2023-02-12T10:57:22;103133.91;;;7.28;80.67
29825;BME280;16713;52.916;12.834;2023-02-12T10:59:50;103124.66;;;7.24;82.39
29825;BME280;16713;52.916;12.834;2023-02-12T11:02:22;103124.38;;;7.31;81.77
29825;BME280;16713;52.916;12.834;2023-02-12T11:04:50;103124.06;;;7.47;80.38
29825;BME280;16713;52.916;12.834;2023-02-12T11:07:16;103130.09;;;7.49;80.32
29825;BME280;16713;52.916;12.834;2023-02-12T11:09:46;103121.63;;;7.46;79.89
29825;BME280;16713;52.916;12.834;2023-02-12T11:12:18;103121.91;;;7.49;79.85
29825;BME280;16713;52.916;12.834;2023-02-12T11:14:52;103114.25;;;7.46;80.46
29825;BME280;16713;52.916;12.834;2023-02-12T11:17:22;103109.91;;;7.40;81.33
29825;BME280;16713;52.916;12.834;2023-02-12T11:20:00;103106.06;;;7.41;80.68
29825;BME280;16713;52.916;12.834;2023-02-12T11:22:28;103104.44;;;7.40;80.87
29825;BME280;16713;52.916;12.834;2023-02-12T11:24:59;103101.72;;;7.40;80.59
29825;BME280;16713;52.916;12.834;2023-02-12T11:27:27;103101.72;;;7.40;80.78
29825;BME280;16713;52.916;12.834;2023-02-12T11:30:04;103100.59;;;7.41;80.48
29825;BME280;16713;52.916;12.834;2023-02-12T11:32:36;103107.97;;;7.51;78.83
29825;BME280;16713;52.916;12.834;2023-02-12T11:37:35;103109.88;;;7.50;80.32
29825;BME280;16713;52.916;12.834;2023-02-12T11:40:05;103108.50;;;7.68;79.89
29825;BME280;16713;52.916;12.834;2023-02-12T11:42:33;103110.69;;;7.56;78.77
29825;BME280;16713;52.916;12.834;2023-02-12T11:45:00;103110.41;;;7.62;78.65
29825;BME280;16713;52.916;12.834;2023-02-12T11:47:28;103108.47;;;7.78;79.21
29825;BME280;16713;52.916;12.834;2023-02-12T11:49:57;103111.75;;;7.90;78.65
29825;BME280;16713;52.916;12.834;2023-02-12T11:52:28;103113.91;;;7.98;78.17
29825;BME280;16713;52.916;12.834;2023-02-12T11:54:57;103109.00;;;7.95;77.99
29825;BME280;16713;52.916;12.834;2023-02-12T12:00:00;103104.03;;;8.02;77.16
29825;BME280;16713;52.916;12.834;2023-02-12T12:02:30;103103.47;;;8.05;77.77
29825;BME280;16713;52.916;12.834;2023-02-12T12:05:08;103098.31;;;7.99;77.97
29825;BME280;16713;52.916;12.834;2023-02-12T12:07:38;103097.16;;;8.15;77.28
29825;BME280;16713;52.916;12.834;2023-02-12T12:10:09;103101.22;;;8.32;75.20
29825;BME280;16713;52.916;12.834;2023-02-12T12:12:42;103103.94;;;8.32;74.70
29825;BME280;16713;52.916;12.834;2023-02-12T12:17:56;103098.69;;;8.41;73.37
29825;BME280;16713;52.916;12.834;2023-02-12T12:20:48;103095.41;;;8.39;74.98
29825;BME280;16713;52.916;12.834;2023-02-12T12:23:18;103096.72;;;8.51;74.82
29825;BME280;16713;52.916;12.834;2023-02-12T12:25:48;103090.44;;;8.46;74.78
29825;BME280;16713;52.916;12.834;2023-02-12T12:29:00;103099.97;;;8.53;74.81
29825;BME280;16713;52.916;12.834;2023-02-12T12:31:08;103099.44;;;8.56;72.50
29825;BME280;16713;52.916;12.834;2023-02-12T12:36:42;103100.38;;;8.80;72.99
29825;BME280;16713;52.916;12.834;2023-02-12T12:44:23;103106.22;;;8.64;71.69
29825;BME280;16713;52.916;12.834;2023-02-12T13:13:30;103108.16;;;8.97;73.41
29825;BME280;16713;52.916;12.834;2023-02-12T13:18:43;103102.00;;;9.15;72.31
29825;BME280;16713;52.916;12.834;2023-02-12T13:21:34;103102.09;;;9.05;72.68
29825;BME280;16713;52.916;12.834;2023-02-12T13:31:45;103119.34;;;9.05;72.92
29825;BME280;16713;52.916;12.834;2023-02-12T13:34:14;103113.03;;;9.05;72.00
29825;BME280;16713;52.916;12.834;2023-02-12T13:36:41;103109.16;;;9.11;71.44
29825;BME280;16713;52.916;12.834;2023-02-12T13:41:40;103115.47;;;9.06;71.12
29825;BME280;16713;52.916;12.834;2023-02-12T13:44:16;103111.47;;;8.94;70.50
29825;BME280;16713;52.916;12.834;2023-02-12T13:49:37;103105.56;;;9.21;70.90
29825;BME280;16713;52.916;12.834;2023-02-12T13:52:08;103110.25;;;9.10;71.39
29825;BME280;16713;52.916;12.834;2023-02-12T13:57:14;103102.13;;;9.00;70.89
29825;BME280;16713;52.916;12.834;2023-02-12T14:07:19;103106.84;;;8.94;72.82
29825;BME280;16713;52.916;12.834;2023-02-12T14:12:16;103100.03;;;8.87;72.83
29825;BME280;16713;52.916;12.834;2023-02-12T14:19:56;103094.28;;;8.88;72.92
29825;BME280;16713;52.916;12.834;2023-02-12T14:24:57;103103.31;;;8.89;72.17
29825;BME280;16713;52.916;12.834;2023-02-12T14:27:34;103108.78;;;8.89;73.49
29825;BME280;16713;52.916;12.834;2023-02-12T14:37:51;103107.69;;;8.90;73.08
29825;BME280;16713;52.916;12.834;2023-02-12T14:43:00;103109.56;;;8.94;74.35
29825;BME280;16713;52.916;12.834;2023-02-12T14:45:34;103105.28;;;8.83;74.64
29825;BME280;16713;52.916;12.834;2023-02-12T14:48:01;103110.94;;;8.92;74.22
29825;BME280;16713;52.916;12.834;2023-02-12T14:50:30;103096.81;;;8.80;73.46
29825;BME280;16713;52.916;12.834;2023-02-12T14:53:12;103095.72;;;8.76;73.59
29825;BME280;16713;52.916;12.834;2023-02-12T14:55:45;103097.16;;;8.68;73.94
29825;BME280;16713;52.916;12.834;2023-02-12T14:58:15;103099.88;;;8.73;75.58
29825;BME280;16713;52.916;12.834;2023-02-12T15:00:43;103098.19;;;8.77;74.44
29825;BME280;16713;52.916;12.834;2023-02-12T15:03:15;103105.34;;;8.73;73.71
29825;BME280;16713;52.916;12.834;2023-02-12T15:10:55;103096.84;;;8.75;72.87
29825;BME280;16713;52.916;12.834;2023-02-12T15:13:26;103099.88;;;8.68;72.76
29825;BME280;16713;52.916;12.834;2023-02-12T15:21:15;103096.31;;;8.68;73.05
29825;BME280;16713;52.916;12.834;2023-02-12T15:23:47;103108.63;;;8.70;73.31
29825;BME280;16713;52.916;12.834;2023-02-12T15:26:22;103107.25;;;8.73;73.62
29825;BME280;16713;52.916;12.834;2023-02-12T15:28:50;103108.66;;;8.65;73.02
29825;BME280;16713;52.916;12.834;2023-02-12T15:31:22;103113.84;;;8.67;72.67
29825;BME280;16713;52.916;12.834;2023-02-12T15:33:51;103110.13;;;8.53;73.26
29825;BME280;16713;52.916;12.834;2023-02-12T15:36:20;103118.84;;;8.55;73.51